EGQS

RAF Lossiemouth Airport

Lossiemouth, United Kingdom
METAR EGQS 221750Z 25014KT 9999 FEW030 12/05 Q0999 BLU
Observed Flight Rules
Apr-22 @ 17:50 UTC (33 minutes ago) Visual Flight Rules
Wind Visibility Clouds
250° at 14 knots 10,000+ meters
  • Few at 3,000' AGL
Temperatures Readings
Current 12°C / 54°F
Dewpoint 5°C / 41°F
Humidity 63%
Altimeter 29.5" Hg
Pressure 999 hPa
Elevation 13
METAR EGQS 221750Z 25014KT 9999 FEW030 12/05 Q0999 BLU
Observed Flight Rules
Apr-22 @ 17:50 UTC
(33 minutes ago)
VFR
Wind Visibility
250° at 14 knots 10,000+ meters
Clouds
  • Few at 3,000' AGL
Temperature Dewpoint
12°C / 54°F 5°C / 41°F
Humidity Altimeter Pressure
63% 29.5" Hg 999 hPa